Terminal Aerodrome Forecast
Issued by NWS

Home | Current Version | Previous Version | Graphics & Text | Print | Product List | Glossary On
Versions: 1 2 3 4 5 6 7 8 9 10 11 12 13 14 15 16 17 18 19 20 21
000
FTUS43 KGRB 171100 RRA
TAFCWA
TAF
KCWA 171141Z 1712/1812 31008KT P6SM SCT022 BKN050
      TEMPO 1713/1715 SCT012 BKN022
     FM171500 31011G20KT P6SM SCT010 BKN022
      TEMPO 1716/1720 5SM -SHRA BR BKN010
     FM180200 33010KT P6SM BKN022=

USA.gov is the U.S. government's official web portal to all federal, state and local government web resources and services.